sensor_id;sensor_type;location;lat;lon;timestamp;P1;durP1;ratioP1;P2;durP2;ratioP2
289;SDS011;13193;48.874;9.086;2022-10-23T00:01:38;15.53;;;7.00;;
289;SDS011;13193;48.874;9.086;2022-10-23T00:04:05;16.30;;;6.10;;
289;SDS011;13193;48.874;9.086;2022-10-23T00:06:34;17.50;;;7.87;;
289;SDS011;13193;48.874;9.086;2022-10-23T00:09:00;15.20;;;6.67;;
289;SDS011;13193;48.874;9.086;2022-10-23T00:11:28;22.60;;;8.03;;
289;SDS011;13193;48.874;9.086;2022-10-23T00:13:55;13.90;;;7.43;;
289;SDS011;13193;48.874;9.086;2022-10-23T00:16:23;19.00;;;7.90;;
289;SDS011;13193;48.874;9.086;2022-10-23T00:18:49;13.03;;;7.70;;
289;SDS011;13193;48.874;9.086;2022-10-23T00:21:14;19.83;;;7.90;;
289;SDS011;13193;48.874;9.086;2022-10-23T00:23:41;16.50;;;7.30;;
289;SDS011;13193;48.874;9.086;2022-10-23T00:26:07;18.63;;;7.40;;
289;SDS011;13193;48.874;9.086;2022-10-23T00:28:35;16.63;;;8.60;;
289;SDS011;13193;48.874;9.086;2022-10-23T00:31:02;15.23;;;7.67;;
289;SDS011;13193;48.874;9.086;2022-10-23T00:33:29;22.30;;;8.33;;
289;SDS011;13193;48.874;9.086;2022-10-23T00:35:55;19.70;;;9.27;;
289;SDS011;13193;48.874;9.086;2022-10-23T00:38:21;19.73;;;8.43;;
289;SDS011;13193;48.874;9.086;2022-10-23T00:40:47;28.63;;;10.13;;
289;SDS011;13193;48.874;9.086;2022-10-23T00:43:16;26.83;;;10.13;;
289;SDS011;13193;48.874;9.086;2022-10-23T00:45:47;20.90;;;8.03;;
289;SDS011;13193;48.874;9.086;2022-10-23T00:48:13;16.37;;;7.10;;
289;SDS011;13193;48.874;9.086;2022-10-23T00:50:39;14.33;;;7.70;;
289;SDS011;13193;48.874;9.086;2022-10-23T00:53:05;11.93;;;5.10;;
289;SDS011;13193;48.874;9.086;2022-10-23T00:55:33;11.50;;;5.60;;
289;SDS011;13193;48.874;9.086;2022-10-23T00:58:02;13.87;;;5.27;;
289;SDS011;13193;48.874;9.086;2022-10-23T01:00:29;8.73;;;4.90;;
289;SDS011;13193;48.874;9.086;2022-10-23T01:03:04;16.53;;;6.73;;
289;SDS011;13193;48.874;9.086;2022-10-23T01:05:30;8.50;;;4.83;;
289;SDS011;13193;48.874;9.086;2022-10-23T01:08:06;16.90;;;6.07;;
289;SDS011;13193;48.874;9.086;2022-10-23T01:10:44;15.43;;;6.00;;
289;SDS011;13193;48.874;9.086;2022-10-23T01:13:24;12.03;;;4.70;;
289;SDS011;13193;48.874;9.086;2022-10-23T01:27:17;14.97;;;6.30;;
289;SDS011;13193;48.874;9.086;2022-10-23T01:35:28;16.53;;;6.60;;
289;SDS011;13193;48.874;9.086;2022-10-23T01:38:22;11.93;;;6.60;;
289;SDS011;13193;48.874;9.086;2022-10-23T01:40:54;23.10;;;6.43;;
289;SDS011;13193;48.874;9.086;2022-10-23T01:43:30;16.83;;;6.70;;
289;SDS011;13193;48.874;9.086;2022-10-23T01:46:17;11.20;;;5.67;;
289;SDS011;13193;48.874;9.086;2022-10-23T01:48:47;13.73;;;6.43;;
289;SDS011;13193;48.874;9.086;2022-10-23T01:51:16;16.73;;;6.37;;
289;SDS011;13193;48.874;9.086;2022-10-23T01:53:43;16.97;;;6.03;;
289;SDS011;13193;48.874;9.086;2022-10-23T01:56:15;20.53;;;6.63;;
289;SDS011;13193;48.874;9.086;2022-10-23T01:58:48;16.53;;;6.97;;
289;SDS011;13193;48.874;9.086;2022-10-23T02:01:17;18.13;;;6.07;;
289;SDS011;13193;48.874;9.086;2022-10-23T02:03:45;16.63;;;6.40;;
289;SDS011;13193;48.874;9.086;2022-10-23T02:06:13;17.90;;;5.33;;
289;SDS011;13193;48.874;9.086;2022-10-23T02:08:39;25.57;;;5.37;;
289;SDS011;13193;48.874;9.086;2022-10-23T02:16:29;11.30;;;5.33;;
289;SDS011;13193;48.874;9.086;2022-10-23T02:24:40;12.13;;;5.37;;
289;SDS011;13193;48.874;9.086;2022-10-23T02:27:14;10.43;;;5.00;;
289;SDS011;13193;48.874;9.086;2022-10-23T02:29:45;13.13;;;5.20;;
289;SDS011;13193;48.874;9.086;2022-10-23T02:32:16;11.57;;;5.77;;
289;SDS011;13193;48.874;9.086;2022-10-23T02:34:44;14.30;;;5.40;;
289;SDS011;13193;48.874;9.086;2022-10-23T02:37:10;10.93;;;4.90;;
289;SDS011;13193;48.874;9.086;2022-10-23T02:39:35;21.43;;;6.60;;
289;SDS011;13193;48.874;9.086;2022-10-23T02:42:10;12.80;;;6.17;;
289;SDS011;13193;48.874;9.086;2022-10-23T02:47:29;13.00;;;7.33;;
289;SDS011;13193;48.874;9.086;2022-10-23T02:50:05;8.40;;;5.03;;
289;SDS011;13193;48.874;9.086;2022-10-23T02:52:40;10.70;;;5.13;;
289;SDS011;13193;48.874;9.086;2022-10-23T02:58:08;22.77;;;6.23;;
289;SDS011;13193;48.874;9.086;2022-10-23T03:00:41;11.10;;;5.67;;
289;SDS011;13193;48.874;9.086;2022-10-23T03:03:14;12.97;;;5.80;;
289;SDS011;13193;48.874;9.086;2022-10-23T03:05:44;14.03;;;5.40;;
289;SDS011;13193;48.874;9.086;2022-10-23T03:08:10;11.43;;;6.17;;
289;SDS011;13193;48.874;9.086;2022-10-23T03:10:37;10.00;;;5.50;;
289;SDS011;13193;48.874;9.086;2022-10-23T03:13:03;12.73;;;4.77;;
289;SDS011;13193;48.874;9.086;2022-10-23T03:15:29;10.70;;;5.13;;
289;SDS011;13193;48.874;9.086;2022-10-23T03:17:55;8.83;;;4.77;;
289;SDS011;13193;48.874;9.086;2022-10-23T03:20:20;14.77;;;5.43;;
289;SDS011;13193;48.874;9.086;2022-10-23T03:22:46;18.43;;;5.63;;
289;SDS011;13193;48.874;9.086;2022-10-23T03:25:12;14.03;;;6.63;;
289;SDS011;13193;48.874;9.086;2022-10-23T03:27:37;11.53;;;5.50;;
289;SDS011;13193;48.874;9.086;2022-10-23T03:30:03;11.10;;;5.33;;
289;SDS011;13193;48.874;9.086;2022-10-23T03:32:29;12.37;;;5.97;;
289;SDS011;13193;48.874;9.086;2022-10-23T03:34:55;16.40;;;5.93;;
289;SDS011;13193;48.874;9.086;2022-10-23T03:37:21;14.07;;;5.10;;
289;SDS011;13193;48.874;9.086;2022-10-23T03:39:47;8.30;;;4.83;;
289;SDS011;13193;48.874;9.086;2022-10-23T03:42:12;11.70;;;5.40;;
289;SDS011;13193;48.874;9.086;2022-10-23T03:44:38;18.20;;;5.70;;
289;SDS011;13193;48.874;9.086;2022-10-23T03:47:04;11.83;;;4.73;;
289;SDS011;13193;48.874;9.086;2022-10-23T03:49:29;13.07;;;4.93;;
289;SDS011;13193;48.874;9.086;2022-10-23T03:51:55;10.07;;;4.77;;
289;SDS011;13193;48.874;9.086;2022-10-23T03:54:21;11.73;;;4.60;;
289;SDS011;13193;48.874;9.086;2022-10-23T03:56:49;10.10;;;4.77;;
289;SDS011;13193;48.874;9.086;2022-10-23T03:59:15;12.27;;;5.30;;
289;SDS011;13193;48.874;9.086;2022-10-23T04:01:41;8.70;;;5.13;;
289;SDS011;13193;48.874;9.086;2022-10-23T04:04:07;15.20;;;5.20;;
289;SDS011;13193;48.874;9.086;2022-10-23T04:06:32;17.20;;;5.30;;
289;SDS011;13193;48.874;9.086;2022-10-23T04:08:58;13.43;;;5.03;;
289;SDS011;13193;48.874;9.086;2022-10-23T04:11:24;14.33;;;5.57;;
289;SDS011;13193;48.874;9.086;2022-10-23T04:13:49;10.80;;;5.30;;
289;SDS011;13193;48.874;9.086;2022-10-23T04:16:15;9.27;;;5.03;;
289;SDS011;13193;48.874;9.086;2022-10-23T04:18:41;12.73;;;5.33;;
289;SDS011;13193;48.874;9.086;2022-10-23T04:21:06;13.37;;;6.33;;
289;SDS011;13193;48.874;9.086;2022-10-23T04:23:32;17.70;;;4.90;;
289;SDS011;13193;48.874;9.086;2022-10-23T04:25:58;19.50;;;6.33;;
289;SDS011;13193;48.874;9.086;2022-10-23T04:28:24;13.20;;;6.37;;
289;SDS011;13193;48.874;9.086;2022-10-23T04:30:50;12.33;;;5.60;;
289;SDS011;13193;48.874;9.086;2022-10-23T04:33:15;11.67;;;5.40;;
289;SDS011;13193;48.874;9.086;2022-10-23T04:35:41;18.40;;;5.83;;
289;SDS011;13193;48.874;9.086;2022-10-23T04:38:07;11.73;;;5.83;;
289;SDS011;13193;48.874;9.086;2022-10-23T04:40:32;8.33;;;5.30;;
289;SDS011;13193;48.874;9.086;2022-10-23T04:42:59;11.80;;;6.13;;
289;SDS011;13193;48.874;9.086;2022-10-23T04:45:25;18.80;;;6.60;;
289;SDS011;13193;48.874;9.086;2022-10-23T04:47:51;9.40;;;5.20;;
289;SDS011;13193;48.874;9.086;2022-10-23T04:50:17;11.57;;;5.30;;
289;SDS011;13193;48.874;9.086;2022-10-23T04:52:44;14.47;;;5.70;;
289;SDS011;13193;48.874;9.086;2022-10-23T04:55:09;10.83;;;5.67;;
289;SDS011;13193;48.874;9.086;2022-10-23T04:57:35;11.40;;;5.63;;
289;SDS011;13193;48.874;9.086;2022-10-23T05:00:02;11.80;;;5.57;;
289;SDS011;13193;48.874;9.086;2022-10-23T05:02:29;16.43;;;5.77;;
289;SDS011;13193;48.874;9.086;2022-10-23T05:04:54;12.30;;;5.17;;
289;SDS011;13193;48.874;9.086;2022-10-23T05:07:20;14.20;;;5.00;;
289;SDS011;13193;48.874;9.086;2022-10-23T05:09:46;10.70;;;5.60;;
289;SDS011;13193;48.874;9.086;2022-10-23T05:12:11;14.53;;;6.93;;
289;SDS011;13193;48.874;9.086;2022-10-23T05:14:37;7.93;;;4.67;;
289;SDS011;13193;48.874;9.086;2022-10-23T05:17:13;13.57;;;6.90;;
289;SDS011;13193;48.874;9.086;2022-10-23T05:19:45;9.17;;;5.37;;
289;SDS011;13193;48.874;9.086;2022-10-23T05:22:17;10.47;;;5.00;;
289;SDS011;13193;48.874;9.086;2022-10-23T05:24:44;18.80;;;6.80;;
289;SDS011;13193;48.874;9.086;2022-10-23T05:27:10;10.57;;;5.70;;
289;SDS011;13193;48.874;9.086;2022-10-23T05:29:36;13.73;;;6.47;;
289;SDS011;13193;48.874;9.086;2022-10-23T05:32:02;8.77;;;4.60;;
289;SDS011;13193;48.874;9.086;2022-10-23T05:34:30;9.90;;;5.50;;
289;SDS011;13193;48.874;9.086;2022-10-23T05:36:59;11.03;;;5.17;;
289;SDS011;13193;48.874;9.086;2022-10-23T05:39:26;17.63;;;5.83;;
289;SDS011;13193;48.874;9.086;2022-10-23T05:41:52;18.57;;;5.40;;
289;SDS011;13193;48.874;9.086;2022-10-23T05:44:19;13.17;;;5.70;;
289;SDS011;13193;48.874;9.086;2022-10-23T05:46:45;19.53;;;6.20;;
289;SDS011;13193;48.874;9.086;2022-10-23T05:49:11;12.27;;;5.27;;
289;SDS011;13193;48.874;9.086;2022-10-23T05:51:37;10.93;;;4.77;;
289;SDS011;13193;48.874;9.086;2022-10-23T05:54:04;9.53;;;4.80;;
289;SDS011;13193;48.874;9.086;2022-10-23T05:56:33;11.43;;;5.53;;
289;SDS011;13193;48.874;9.086;2022-10-23T05:58:59;12.60;;;4.83;;
289;SDS011;13193;48.874;9.086;2022-10-23T06:01:25;18.37;;;6.17;;
289;SDS011;13193;48.874;9.086;2022-10-23T06:03:50;11.47;;;4.20;;
289;SDS011;13193;48.874;9.086;2022-10-23T06:06:16;9.03;;;5.00;;
289;SDS011;13193;48.874;9.086;2022-10-23T06:08:42;9.93;;;5.43;;
289;SDS011;13193;48.874;9.086;2022-10-23T06:11:08;14.87;;;5.37;;
289;SDS011;13193;48.874;9.086;2022-10-23T06:13:36;8.97;;;4.87;;
289;SDS011;13193;48.874;9.086;2022-10-23T06:16:35;10.53;;;5.10;;
289;SDS011;13193;48.874;9.086;2022-10-23T06:18:53;10.10;;;4.83;;
289;SDS011;13193;48.874;9.086;2022-10-23T06:21:19;8.03;;;4.73;;
289;SDS011;13193;48.874;9.086;2022-10-23T06:23:46;14.53;;;5.00;;
289;SDS011;13193;48.874;9.086;2022-10-23T06:26:13;12.47;;;4.60;;
289;SDS011;13193;48.874;9.086;2022-10-23T06:28:39;14.60;;;4.60;;
289;SDS011;13193;48.874;9.086;2022-10-23T06:31:06;9.77;;;4.90;;
289;SDS011;13193;48.874;9.086;2022-10-23T06:33:33;12.43;;;4.93;;
289;SDS011;13193;48.874;9.086;2022-10-23T06:35:59;11.97;;;4.57;;
289;SDS011;13193;48.874;9.086;2022-10-23T06:38:25;12.50;;;5.40;;
289;SDS011;13193;48.874;9.086;2022-10-23T06:40:53;12.13;;;5.77;;
289;SDS011;13193;48.874;9.086;2022-10-23T06:43:21;9.47;;;5.63;;
289;SDS011;13193;48.874;9.086;2022-10-23T06:45:47;22.83;;;5.23;;
289;SDS011;13193;48.874;9.086;2022-10-23T06:48:13;17.03;;;7.27;;
289;SDS011;13193;48.874;9.086;2022-10-23T06:50:39;18.50;;;10.20;;
289;SDS011;13193;48.874;9.086;2022-10-23T06:53:04;17.90;;;9.17;;
289;SDS011;13193;48.874;9.086;2022-10-23T06:55:30;22.10;;;10.03;;
289;SDS011;13193;48.874;9.086;2022-10-23T06:57:57;10.13;;;4.90;;
289;SDS011;13193;48.874;9.086;2022-10-23T07:00:22;12.13;;;5.50;;
289;SDS011;13193;48.874;9.086;2022-10-23T07:02:48;10.37;;;4.07;;
289;SDS011;13193;48.874;9.086;2022-10-23T07:05:15;9.10;;;4.60;;
289;SDS011;13193;48.874;9.086;2022-10-23T07:07:40;14.13;;;4.43;;
289;SDS011;13193;48.874;9.086;2022-10-23T07:10:06;7.53;;;4.07;;
289;SDS011;13193;48.874;9.086;2022-10-23T07:12:34;9.73;;;3.90;;
289;SDS011;13193;48.874;9.086;2022-10-23T07:14:59;7.40;;;4.43;;
289;SDS011;13193;48.874;9.086;2022-10-23T07:17:27;6.50;;;3.77;;
289;SDS011;13193;48.874;9.086;2022-10-23T07:19:53;10.93;;;4.60;;
289;SDS011;13193;48.874;9.086;2022-10-23T07:22:18;6.47;;;4.20;;
289;SDS011;13193;48.874;9.086;2022-10-23T07:24:44;6.00;;;3.50;;
289;SDS011;13193;48.874;9.086;2022-10-23T07:27:10;5.90;;;4.10;;
289;SDS011;13193;48.874;9.086;2022-10-23T07:29:35;11.33;;;4.10;;
289;SDS011;13193;48.874;9.086;2022-10-23T07:32:01;7.30;;;4.23;;
289;SDS011;13193;48.874;9.086;2022-10-23T07:34:29;15.47;;;5.00;;
289;SDS011;13193;48.874;9.086;2022-10-23T07:36:56;12.53;;;4.30;;
289;SDS011;13193;48.874;9.086;2022-10-23T07:39:22;7.57;;;4.43;;
289;SDS011;13193;48.874;9.086;2022-10-23T07:41:49;6.03;;;3.90;;
289;SDS011;13193;48.874;9.086;2022-10-23T07:44:18;10.60;;;5.10;;
289;SDS011;13193;48.874;9.086;2022-10-23T07:46:48;8.70;;;5.10;;
289;SDS011;13193;48.874;9.086;2022-10-23T07:49:15;4.80;;;3.63;;
289;SDS011;13193;48.874;9.086;2022-10-23T07:51:50;6.50;;;3.63;;
289;SDS011;13193;48.874;9.086;2022-10-23T07:54:18;10.40;;;3.73;;
289;SDS011;13193;48.874;9.086;2022-10-23T07:56:44;22.10;;;2.83;;
289;SDS011;13193;48.874;9.086;2022-10-23T07:59:14;6.67;;;3.20;;
289;SDS011;13193;48.874;9.086;2022-10-23T08:01:44;7.33;;;3.03;;
289;SDS011;13193;48.874;9.086;2022-10-23T08:04:13;6.70;;;2.40;;
289;SDS011;13193;48.874;9.086;2022-10-23T08:06:39;6.17;;;2.90;;
289;SDS011;13193;48.874;9.086;2022-10-23T08:09:07;6.87;;;4.50;;
289;SDS011;13193;48.874;9.086;2022-10-23T08:11:46;6.80;;;2.97;;
289;SDS011;13193;48.874;9.086;2022-10-23T08:14:12;11.23;;;3.23;;
289;SDS011;13193;48.874;9.086;2022-10-23T08:16:43;5.67;;;3.00;;
289;SDS011;13193;48.874;9.086;2022-10-23T08:19:12;17.83;;;3.63;;
289;SDS011;13193;48.874;9.086;2022-10-23T08:21:38;6.53;;;3.60;;
289;SDS011;13193;48.874;9.086;2022-10-23T08:24:05;4.93;;;3.23;;
289;SDS011;13193;48.874;9.086;2022-10-23T08:26:47;9.93;;;3.60;;
289;SDS011;13193;48.874;9.086;2022-10-23T08:29:14;9.07;;;3.80;;
289;SDS011;13193;48.874;9.086;2022-10-23T08:31:40;7.80;;;4.30;;
289;SDS011;13193;48.874;9.086;2022-10-23T08:34:05;8.50;;;3.73;;
289;SDS011;13193;48.874;9.086;2022-10-23T08:36:36;6.07;;;3.13;;
289;SDS011;13193;48.874;9.086;2022-10-23T08:39:09;13.17;;;3.67;;
289;SDS011;13193;48.874;9.086;2022-10-23T08:41:40;9.27;;;3.20;;
289;SDS011;13193;48.874;9.086;2022-10-23T08:47:23;7.70;;;4.00;;
289;SDS011;13193;48.874;9.086;2022-10-23T08:55:44;14.53;;;4.27;;
289;SDS011;13193;48.874;9.086;2022-10-23T08:58:42;8.10;;;3.83;;
289;SDS011;13193;48.874;9.086;2022-10-23T09:01:30;10.73;;;3.33;;
289;SDS011;13193;48.874;9.086;2022-10-23T09:04:02;5.73;;;2.37;;
289;SDS011;13193;48.874;9.086;2022-10-23T09:06:48;4.90;;;2.60;;
289;SDS011;13193;48.874;9.086;2022-10-23T09:09:54;8.30;;;3.30;;
289;SDS011;13193;48.874;9.086;2022-10-23T09:12:36;5.60;;;2.97;;
289;SDS011;13193;48.874;9.086;2022-10-23T09:15:37;8.37;;;3.30;;
289;SDS011;13193;48.874;9.086;2022-10-23T09:18:10;19.67;;;2.70;;
289;SDS011;13193;48.874;9.086;2022-10-23T09:20:41;5.53;;;2.33;;
289;SDS011;13193;48.874;9.086;2022-10-23T09:25:42;7.57;;;2.40;;
289;SDS011;13193;48.874;9.086;2022-10-23T09:28:19;5.00;;;2.50;;
289;SDS011;13193;48.874;9.086;2022-10-23T09:31:07;3.70;;;1.90;;
289;SDS011;13193;48.874;9.086;2022-10-23T09:33:35;3.60;;;2.20;;
289;SDS011;13193;48.874;9.086;2022-10-23T09:38:47;3.13;;;1.57;;
289;SDS011;13193;48.874;9.086;2022-10-23T09:41:36;7.27;;;1.90;;
289;SDS011;13193;48.874;9.086;2022-10-23T09:46:57;3.77;;;1.93;;
289;SDS011;13193;48.874;9.086;2022-10-23T09:49:51;9.10;;;2.67;;
289;SDS011;13193;48.874;9.086;2022-10-23T09:52:24;6.07;;;2.27;;
289;SDS011;13193;48.874;9.086;2022-10-23T09:58:18;3.10;;;2.00;;
289;SDS011;13193;48.874;9.086;2022-10-23T10:00:53;3.27;;;1.90;;
289;SDS011;13193;48.874;9.086;2022-10-23T10:03:35;3.90;;;1.50;;
289;SDS011;13193;48.874;9.086;2022-10-23T10:06:32;2.60;;;1.50;;
289;SDS011;13193;48.874;9.086;2022-10-23T10:09:01;3.60;;;1.93;;
289;SDS011;13193;48.874;9.086;2022-10-23T10:11:38;3.50;;;2.37;;
289;SDS011;13193;48.874;9.086;2022-10-23T10:22:25;4.27;;;1.50;;
289;SDS011;13193;48.874;9.086;2022-10-23T10:30:17;2.33;;;1.30;;
289;SDS011;13193;48.874;9.086;2022-10-23T10:32:48;9.40;;;1.40;;
289;SDS011;13193;48.874;9.086;2022-10-23T10:35:25;3.37;;;1.60;;
289;SDS011;13193;48.874;9.086;2022-10-23T10:37:58;4.77;;;1.40;;
289;SDS011;13193;48.874;9.086;2022-10-23T10:40:34;5.50;;;1.30;;
289;SDS011;13193;48.874;9.086;2022-10-23T10:46:20;2.83;;;1.70;;
289;SDS011;13193;48.874;9.086;2022-10-23T10:49:09;4.47;;;2.00;;
289;SDS011;13193;48.874;9.086;2022-10-23T10:51:51;2.90;;;1.00;;
289;SDS011;13193;48.874;9.086;2022-10-23T11:00:00;3.83;;;1.13;;
289;SDS011;13193;48.874;9.086;2022-10-23T11:02:32;3.63;;;1.53;;
289;SDS011;13193;48.874;9.086;2022-10-23T11:05:04;2.13;;;1.17;;
289;SDS011;13193;48.874;9.086;2022-10-23T11:07:41;5.73;;;0.90;;
289;SDS011;13193;48.874;9.086;2022-10-23T11:10:20;2.47;;;1.30;;
289;SDS011;13193;48.874;9.086;2022-10-23T11:12:46;2.37;;;1.07;;
289;SDS011;13193;48.874;9.086;2022-10-23T11:15:16;3.53;;;2.13;;
289;SDS011;13193;48.874;9.086;2022-10-23T11:18:00;7.07;;;2.83;;
289;SDS011;13193;48.874;9.086;2022-10-23T11:20:36;2.53;;;1.00;;
289;SDS011;13193;48.874;9.086;2022-10-23T11:28:56;1.50;;;0.90;;
289;SDS011;13193;48.874;9.086;2022-10-23T11:37:00;2.40;;;0.93;;
289;SDS011;13193;48.874;9.086;2022-10-23T11:39:52;2.40;;;1.10;;
289;SDS011;13193;48.874;9.086;2022-10-23T11:48:04;4.37;;;1.53;;
289;SDS011;13193;48.874;9.086;2022-10-23T12:01:17;4.90;;;1.87;;
289;SDS011;13193;48.874;9.086;2022-10-23T12:03:59;3.83;;;1.50;;
289;SDS011;13193;48.874;9.086;2022-10-23T12:06:39;4.70;;;2.10;;
289;SDS011;13193;48.874;9.086;2022-10-23T12:09:40;3.93;;;1.90;;
289;SDS011;13193;48.874;9.086;2022-10-23T12:12:30;9.17;;;2.00;;
289;SDS011;13193;48.874;9.086;2022-10-23T12:18:12;2.03;;;1.03;;
289;SDS011;13193;48.874;9.086;2022-10-23T12:20:53;3.63;;;1.00;;
289;SDS011;13193;48.874;9.086;2022-10-23T12:26:52;4.03;;;0.77;;
289;SDS011;13193;48.874;9.086;2022-10-23T12:40:35;1.67;;;0.93;;
289;SDS011;13193;48.874;9.086;2022-10-23T12:43:01;1.90;;;1.00;;
289;SDS011;13193;48.874;9.086;2022-10-23T12:45:27;2.87;;;1.20;;
289;SDS011;13193;48.874;9.086;2022-10-23T12:47:56;6.90;;;1.00;;
289;SDS011;13193;48.874;9.086;2022-10-23T12:50:31;2.80;;;1.30;;
289;SDS011;13193;48.874;9.086;2022-10-23T12:53:01;2.63;;;1.47;;
289;SDS011;13193;48.874;9.086;2022-10-23T12:58:24;6.23;;;1.47;;
289;SDS011;13193;48.874;9.086;2022-10-23T13:00:56;1.67;;;0.93;;
289;SDS011;13193;48.874;9.086;2022-10-23T13:03:42;4.60;;;1.20;;
289;SDS011;13193;48.874;9.086;2022-10-23T13:06:08;3.90;;;1.00;;
289;SDS011;13193;48.874;9.086;2022-10-23T13:08:38;6.80;;;0.90;;
289;SDS011;13193;48.874;9.086;2022-10-23T13:11:08;2.60;;;0.80;;
289;SDS011;13193;48.874;9.086;2022-10-23T13:13:39;5.87;;;1.57;;
289;SDS011;13193;48.874;9.086;2022-10-23T13:16:19;1.47;;;0.80;;
289;SDS011;13193;48.874;9.086;2022-10-23T13:18:47;2.07;;;0.87;;
289;SDS011;13193;48.874;9.086;2022-10-23T13:21:20;2.40;;;1.30;;
289;SDS011;13193;48.874;9.086;2022-10-23T13:23:50;1.80;;;0.83;;
289;SDS011;13193;48.874;9.086;2022-10-23T13:26:27;2.60;;;0.87;;
289;SDS011;13193;48.874;9.086;2022-10-23T13:29:16;3.63;;;2.10;;
289;SDS011;13193;48.874;9.086;2022-10-23T13:31:44;1.67;;;0.60;;
289;SDS011;13193;48.874;9.086;2022-10-23T13:34:15;2.30;;;1.00;;
289;SDS011;13193;48.874;9.086;2022-10-23T13:39:27;4.37;;;1.53;;
289;SDS011;13193;48.874;9.086;2022-10-23T13:41:55;3.10;;;0.90;;
289;SDS011;13193;48.874;9.086;2022-10-23T13:44:24;1.53;;;1.00;;
289;SDS011;13193;48.874;9.086;2022-10-23T13:46:50;3.17;;;1.30;;
289;SDS011;13193;48.874;9.086;2022-10-23T13:49:16;3.40;;;0.80;;
289;SDS011;13193;48.874;9.086;2022-10-23T13:51:49;2.33;;;0.80;;
289;SDS011;13193;48.874;9.086;2022-10-23T13:54:21;3.03;;;1.20;;
289;SDS011;13193;48.874;9.086;2022-10-23T13:56:49;3.10;;;1.10;;
289;SDS011;13193;48.874;9.086;2022-10-23T13:59:15;2.67;;;0.97;;
289;SDS011;13193;48.874;9.086;2022-10-23T14:01:42;3.73;;;0.93;;
289;SDS011;13193;48.874;9.086;2022-10-23T14:04:08;4.17;;;1.63;;
289;SDS011;13193;48.874;9.086;2022-10-23T14:06:36;3.70;;;1.07;;
289;SDS011;13193;48.874;9.086;2022-10-23T14:09:06;2.60;;;1.10;;
289;SDS011;13193;48.874;9.086;2022-10-23T14:11:34;1.83;;;0.90;;
289;SDS011;13193;48.874;9.086;2022-10-23T14:14:00;3.33;;;1.53;;
289;SDS011;13193;48.874;9.086;2022-10-23T14:16:25;2.40;;;1.50;;
289;SDS011;13193;48.874;9.086;2022-10-23T14:18:51;2.83;;;1.80;;
289;SDS011;13193;48.874;9.086;2022-10-23T14:21:18;5.17;;;2.27;;
289;SDS011;13193;48.874;9.086;2022-10-23T14:23:46;4.10;;;2.03;;
289;SDS011;13193;48.874;9.086;2022-10-23T14:26:13;6.30;;;2.67;;
289;SDS011;13193;48.874;9.086;2022-10-23T14:28:40;6.47;;;2.90;;
289;SDS011;13193;48.874;9.086;2022-10-23T14:31:11;8.23;;;3.40;;
289;SDS011;13193;48.874;9.086;2022-10-23T14:33:40;5.70;;;2.97;;
289;SDS011;13193;48.874;9.086;2022-10-23T14:36:06;9.30;;;2.63;;
289;SDS011;13193;48.874;9.086;2022-10-23T14:38:32;7.17;;;3.60;;
289;SDS011;13193;48.874;9.086;2022-10-23T14:40:58;6.60;;;2.93;;
289;SDS011;13193;48.874;9.086;2022-10-23T14:43:23;7.67;;;3.47;;
289;SDS011;13193;48.874;9.086;2022-10-23T14:45:49;6.47;;;3.30;;
289;SDS011;13193;48.874;9.086;2022-10-23T14:48:15;7.20;;;3.13;;
289;SDS011;13193;48.874;9.086;2022-10-23T14:50:42;7.07;;;3.73;;
289;SDS011;13193;48.874;9.086;2022-10-23T14:53:09;5.20;;;2.70;;
289;SDS011;13193;48.874;9.086;2022-10-23T14:55:35;9.60;;;2.90;;
289;SDS011;13193;48.874;9.086;2022-10-23T14:58:00;6.23;;;3.83;;
289;SDS011;13193;48.874;9.086;2022-10-23T15:00:26;5.60;;;2.90;;
289;SDS011;13193;48.874;9.086;2022-10-23T15:02:52;6.63;;;2.70;;
289;SDS011;13193;48.874;9.086;2022-10-23T15:05:18;6.10;;;2.90;;
289;SDS011;13193;48.874;9.086;2022-10-23T15:07:43;6.03;;;3.30;;
289;SDS011;13193;48.874;9.086;2022-10-23T15:10:09;5.77;;;2.50;;
289;SDS011;13193;48.874;9.086;2022-10-23T15:12:35;5.97;;;3.10;;
289;SDS011;13193;48.874;9.086;2022-10-23T15:15:02;5.13;;;2.60;;
289;SDS011;13193;48.874;9.086;2022-10-23T15:17:29;5.27;;;3.27;;
289;SDS011;13193;48.874;9.086;2022-10-23T15:19:56;5.40;;;3.13;;
289;SDS011;13193;48.874;9.086;2022-10-23T15:22:22;7.00;;;2.80;;
289;SDS011;13193;48.874;9.086;2022-10-23T15:24:48;9.10;;;2.77;;
289;SDS011;13193;48.874;9.086;2022-10-23T15:27:13;7.80;;;2.27;;
289;SDS011;13193;48.874;9.086;2022-10-23T15:29:39;11.63;;;3.20;;
289;SDS011;13193;48.874;9.086;2022-10-23T15:32:05;7.87;;;2.60;;
289;SDS011;13193;48.874;9.086;2022-10-23T15:34:31;13.03;;;3.20;;
289;SDS011;13193;48.874;9.086;2022-10-23T15:36:58;6.07;;;2.57;;
289;SDS011;13193;48.874;9.086;2022-10-23T15:39:25;9.80;;;3.13;;
289;SDS011;13193;48.874;9.086;2022-10-23T15:41:57;6.97;;;2.80;;
289;SDS011;13193;48.874;9.086;2022-10-23T15:44:24;7.13;;;3.40;;
289;SDS011;13193;48.874;9.086;2022-10-23T15:46:51;7.63;;;2.87;;
289;SDS011;13193;48.874;9.086;2022-10-23T15:49:18;42.67;;;4.03;;
289;SDS011;13193;48.874;9.086;2022-10-23T15:51:44;9.77;;;2.60;;
289;SDS011;13193;48.874;9.086;2022-10-23T15:54:13;6.67;;;2.60;;
289;SDS011;13193;48.874;9.086;2022-10-23T15:56:42;10.43;;;2.90;;
289;SDS011;13193;48.874;9.086;2022-10-23T15:59:09;11.13;;;3.03;;
289;SDS011;13193;48.874;9.086;2022-10-23T16:01:34;9.73;;;3.77;;
289;SDS011;13193;48.874;9.086;2022-10-23T16:04:00;9.20;;;3.47;;
289;SDS011;13193;48.874;9.086;2022-10-23T16:06:26;7.23;;;2.57;;
289;SDS011;13193;48.874;9.086;2022-10-23T16:08:51;7.77;;;3.73;;
289;SDS011;13193;48.874;9.086;2022-10-23T16:11:21;12.93;;;4.27;;
289;SDS011;13193;48.874;9.086;2022-10-23T16:13:52;11.13;;;2.87;;
289;SDS011;13193;48.874;9.086;2022-10-23T16:16:23;14.40;;;3.77;;
289;SDS011;13193;48.874;9.086;2022-10-23T16:18:49;5.97;;;3.10;;
289;SDS011;13193;48.874;9.086;2022-10-23T16:21:24;7.50;;;3.10;;
289;SDS011;13193;48.874;9.086;2022-10-23T16:23:52;6.10;;;2.77;;
289;SDS011;13193;48.874;9.086;2022-10-23T16:26:20;8.13;;;3.80;;
289;SDS011;13193;48.874;9.086;2022-10-23T16:28:46;8.40;;;3.30;;
289;SDS011;13193;48.874;9.086;2022-10-23T16:31:15;13.03;;;5.07;;
289;SDS011;13193;48.874;9.086;2022-10-23T16:33:42;8.73;;;3.20;;
289;SDS011;13193;48.874;9.086;2022-10-23T16:36:08;5.33;;;3.63;;
289;SDS011;13193;48.874;9.086;2022-10-23T16:38:34;6.90;;;3.00;;
289;SDS011;13193;48.874;9.086;2022-10-23T16:41:01;8.83;;;4.97;;
289;SDS011;13193;48.874;9.086;2022-10-23T16:43:29;10.07;;;2.50;;
289;SDS011;13193;48.874;9.086;2022-10-23T16:46:05;11.90;;;3.60;;
289;SDS011;13193;48.874;9.086;2022-10-23T16:48:35;11.87;;;3.40;;
289;SDS011;13193;48.874;9.086;2022-10-23T16:51:11;6.67;;;2.63;;
289;SDS011;13193;48.874;9.086;2022-10-23T16:53:42;12.40;;;3.90;;
289;SDS011;13193;48.874;9.086;2022-10-23T16:56:08;5.47;;;3.20;;
289;SDS011;13193;48.874;9.086;2022-10-23T16:58:35;11.80;;;3.97;;
289;SDS011;13193;48.874;9.086;2022-10-23T17:01:03;8.73;;;3.03;;
289;SDS011;13193;48.874;9.086;2022-10-23T17:03:34;15.20;;;3.50;;
289;SDS011;13193;48.874;9.086;2022-10-23T17:06:05;8.40;;;3.17;;
289;SDS011;13193;48.874;9.086;2022-10-23T17:08:32;8.80;;;3.40;;
289;SDS011;13193;48.874;9.086;2022-10-23T17:11:04;8.67;;;3.37;;
289;SDS011;13193;48.874;9.086;2022-10-23T17:13:33;10.63;;;3.10;;
289;SDS011;13193;48.874;9.086;2022-10-23T17:16:08;9.73;;;3.60;;
289;SDS011;13193;48.874;9.086;2022-10-23T17:18:36;5.53;;;3.30;;
289;SDS011;13193;48.874;9.086;2022-10-23T17:21:03;12.57;;;3.37;;
289;SDS011;13193;48.874;9.086;2022-10-23T17:23:29;8.93;;;2.87;;
289;SDS011;13193;48.874;9.086;2022-10-23T17:25:57;19.83;;;9.77;;
289;SDS011;13193;48.874;9.086;2022-10-23T17:28:23;26.37;;;13.63;;
289;SDS011;13193;48.874;9.086;2022-10-23T17:30:49;21.23;;;9.07;;